Time;durP1;ratioP1;P1;durP2;ratioP2;P2;SDS_P1;SDS_P2;PMS_P1;PMS_P2;Temp;Humidity;BMP_temperature;BMP_pressure;BME280_temperature;BME280_humidity;BME280_pressure;Samples;Min_cycle;Max_cycle;Signal;HPM_P1;HPM_P2
2022/06/08 00:01:18;;;;;;;18.50;14.90;;;;;;;18.41;84.48;97944.03;105436;1287;25358;-81
2022/06/08 00:03:51;;;;;;;17.80;13.90;;;;;;;18.37;84.33;97943.45;105443;1287;138441;-81
2022/06/08 00:06:19;;;;;;;19.00;13.90;;;;;;;18.37;84.49;97942.85;105386;1289;25335;-82
2022/06/08 00:09:00;;;;;;;15.30;13.70;;;;;;;18.36;84.33;97941.77;105170;1289;138626;-82
2022/06/08 00:11:41;;;;;;;16.30;12.60;;;;;;;18.31;83.89;97945.97;105383;1289;22611;-82
2022/06/08 00:14:22;;;;;;;16.00;14.00;;;;;;;18.24;83.99;97946.10;105155;1289;137579;-82
2022/06/08 00:17:04;;;;;;;14.40;12.90;;;;;;;18.19;84.23;97947.54;105323;1289;23526;-82
2022/06/08 00:19:44;;;;;;;14.10;12.70;;;;;;;18.15;84.37;97950.41;105100;1289;138316;-82
2022/06/08 00:22:25;;;;;;;14.40;12.70;;;;;;;18.15;84.57;97957.64;105459;1289;23726;-82
2022/06/08 00:24:52;;;;;;;15.00;12.70;;;;;;;18.16;84.66;97959.05;105179;1289;22568;-82
2022/06/08 00:27:33;;;;;;;15.60;12.70;;;;;;;18.17;84.54;97953.86;104858;1290;137865;-82
2022/06/08 00:30:14;;;;;;;13.50;11.90;;;;;;;18.13;84.25;97956.36;105345;1290;22568;-81
2022/06/08 00:32:43;;;;;;;;;;;;;;;18.10;84.23;97954.70;105232;1290;137903;-81
2022/06/08 00:35:11;;;;;;;12.70;10.90;;;;;;;18.07;84.23;97958.14;105336;1289;22563;-81
2022/06/08 00:37:52;;;;;;;12.80;10.20;;;;;;;18.02;84.35;97952.73;105084;1289;138175;-82
2022/06/08 00:40:22;;;;;;;12.50;11.20;;;;;;;18.00;84.15;97954.10;105639;1288;23246;-83
2022/06/08 00:42:50;;;;;;;13.00;11.70;;;;;;;17.94;84.28;97951.79;105186;1287;25411;-83
2022/06/08 00:45:32;;;;;;;14.90;12.80;;;;;;;17.91;84.67;97952.89;105317;1287;137215;-83
2022/06/08 00:48:02;;;;;;;15.30;12.70;;;;;;;17.90;84.72;97955.98;105438;1289;22596;-83
2022/06/08 00:50:53;;;;;;;13.10;11.70;;;;;;;17.89;84.76;97951.49;105315;1290;138579;-82
2022/06/08 00:53:48;;;;;;;12.40;11.10;;;;;;;17.87;84.90;97952.20;105275;1289;22634;-82
2022/06/08 00:56:37;;;;;;;13.90;12.60;;;;;;;17.84;84.94;97950.20;105406;1289;137623;-82
2022/06/08 00:59:06;;;;;;;15.30;13.60;;;;;;;17.78;85.06;97945.99;105770;1289;29302;-82
2022/06/08 01:01:47;;;;;;;14.20;12.30;;;;;;;17.75;85.31;97940.16;105124;1289;137936;-82
2022/06/08 01:04:29;;;;;;;13.10;11.30;;;;;;;17.78;85.82;97941.16;105343;1290;24609;-82
2022/06/08 01:07:18;;;;;;;13.00;11.70;;;;;;;17.84;85.91;97937.45;105281;1290;24268;-82
2022/06/08 01:09:46;;;;;;;19.20;13.20;;;;;;;17.91;85.92;97938.83;105197;1290;138057;-82
2022/06/08 01:12:17;;;;;;;15.50;13.80;;;;;;;17.98;85.84;97941.27;105608;1290;22565;-82
2022/06/08 01:14:49;;;;;;;18.20;14.60;;;;;;;18.06;86.09;97936.89;105211;1290;137627;-82
2022/06/08 01:17:19;;;;;;;16.10;13.80;;;;;;;18.10;85.70;97939.50;105366;1290;22593;-82
2022/06/08 01:19:49;;;;;;;13.40;12.10;;;;;;;18.09;85.29;97939.13;105040;1290;138450;-82
2022/06/08 01:22:20;;;;;;;12.40;10.90;;;;;;;18.09;84.94;97937.05;105375;1290;22606;-81
2022/06/08 01:25:06;;;;;;;13.50;11.40;;;;;;;17.98;84.40;97936.67;105395;1290;25323;-81
2022/06/08 01:28:24;;;;;;;12.70;11.30;;;;;;;17.86;84.57;97936.84;105281;1290;138155;-81
2022/06/08 01:31:09;;;;;;;13.10;10.50;;;;;;;17.81;85.24;97936.30;105384;1290;23230;-81
2022/06/08 01:33:46;;;;;;;11.20;9.30;;;;;;;17.84;85.25;97935.54;105456;1287;138326;-81
2022/06/08 01:36:51;;;;;;;10.10;9.00;;;;;;;17.87;84.89;97931.26;105564;1290;22545;-81
2022/06/08 01:39:44;;;;;;;11.60;10.10;;;;;;;17.89;84.66;97927.86;105101;1289;137929;-81
2022/06/08 01:42:51;;;;;;;13.10;10.70;;;;;;;17.87;84.13;97926.41;106026;1288;24442;-81
2022/06/08 01:45:53;;;;;;;12.60;10.40;;;;;;;17.71;83.70;97921.73;105257;1289;138443;-81
2022/06/08 01:49:10;;;;;;;11.10;9.90;;;;;;;17.59;84.16;97921.29;105645;1289;22771;-82
2022/06/08 01:52:09;;;;;;;12.20;10.80;;;;;;;17.52;84.10;97917.14;105376;1290;138063;-81
2022/06/08 01:54:50;;;;;;;13.70;11.70;;;;;;;17.50;84.50;97916.52;105240;1289;22673;-82
2022/06/08 01:58:18;;;;;;;14.30;12.70;;;;;;;17.50;84.37;97919.59;105675;1287;138250;-82
2022/06/08 02:00:53;;;;;;;13.00;11.20;;;;;;;17.41;84.25;97920.96;105529;1289;30958;-82
2022/06/08 02:03:47;;;;;;;13.30;11.20;;;;;;;17.34;84.35;97921.98;105164;1290;138457;-81
2022/06/08 02:06:29;;;;;;;11.70;10.50;;;;;;;17.25;84.71;97922.96;105457;1290;22546;-82
2022/06/08 02:09:07;;;;;;;14.40;12.10;;;;;;;17.18;85.29;97923.02;105743;1290;138331;-82
2022/06/08 02:11:58;;;;;;;15.30;12.00;;;;;;;17.14;85.40;97924.52;105309;1290;23327;-82
2022/06/08 02:14:47;;;;;;;14.50;11.90;;;;;;;17.10;85.47;97923.05;105279;1287;138424;-82
2022/06/08 02:17:30;;;;;;;14.70;12.20;;;;;;;17.05;85.30;97922.91;105536;1287;25583;-82
2022/06/08 02:20:10;;;;;;;18.70;14.30;;;;;;;16.97;85.33;97918.16;105598;1287;138718;-82
2022/06/08 02:22:58;;;;;;;16.00;12.60;;;;;;;16.91;85.59;97911.91;105293;1290;26507;-82
2022/06/08 02:25:35;;;;;;;17.20;12.80;;;;;;;16.90;85.66;97909.73;105603;1290;22560;-82
2022/06/08 02:28:36;;;;;;;15.80;12.10;;;;;;;16.90;85.91;97906.11;105332;1290;22653;-82
2022/06/08 02:31:13;;;;;;;12.90;11.40;;;;;;;16.90;86.04;97900.38;105550;1287;22544;-82
2022/06/08 02:37:19;;;;;;;15.70;13.40;;;;;;;16.92;85.95;97899.08;105318;1289;25383;-82
2022/06/08 02:40:12;;;;;;;14.80;13.30;;;;;;;16.94;86.08;97902.69;105904;1290;137955;-83
2022/06/08 02:42:58;;;;;;;14.10;12.10;;;;;;;16.92;86.03;97903.77;105380;1290;25382;-82
2022/06/08 02:45:42;;;;;;;13.60;11.90;;;;;;;16.93;86.23;97899.45;105243;1289;138392;-82
2022/06/08 02:48:14;;;;;;;15.20;11.20;;;;;;;16.95;85.76;97898.48;105744;1287;26487;-82
2022/06/08 02:50:53;;;;;;;13.90;11.90;;;;;;;16.95;85.76;97896.73;105238;1289;138026;-82
2022/06/08 02:53:20;;;;;;;16.70;12.60;;;;;;;16.94;85.74;97897.73;105227;1289;22638;-82
2022/06/08 02:56:42;;;;;;;12.90;11.50;;;;;;;16.95;85.66;97898.05;105398;1287;137828;-82
2022/06/08 02:59:44;;;;;;;13.40;11.00;;;;;;;16.96;85.48;97896.06;105844;1288;25351;-82
2022/06/08 03:02:19;;;;;;;12.60;10.80;;;;;;;16.95;85.53;97899.42;105512;1287;138640;-83
2022/06/08 03:05:37;;;;;;;13.70;11.90;;;;;;;16.94;85.54;97895.25;105753;1290;25448;-82
2022/06/08 03:08:24;;;;;;;13.90;11.50;;;;;;;16.96;85.65;97890.70;105208;1290;139127;-82
2022/06/08 03:11:08;;;;;;;15.10;13.10;;;;;;;16.98;85.53;97889.69;105381;1289;22953;-82
2022/06/08 03:13:45;;;;;;;13.10;11.60;;;;;;;16.97;85.46;97897.13;105778;1287;22565;-82
2022/06/08 03:16:29;;;;;;;12.60;11.00;;;;;;;16.96;85.65;97897.91;106655;1276;25354;-82
2022/06/08 03:19:11;;;;;;;14.10;12.00;;;;;;;16.97;85.45;97892.63;106882;1274;25363;-82
2022/06/08 03:21:54;;;;;;;14.20;10.80;;;;;;;17.00;85.53;97891.64;106677;1276;138373;-82
2022/06/08 03:24:23;;;;;;;14.30;11.00;;;;;;;17.05;85.66;97893.70;106809;1276;22880;-83
2022/06/08 03:26:58;;;;;;;15.40;12.10;;;;;;;17.06;85.16;97904.13;106478;1277;137741;-82
2022/06/08 03:29:27;;;;;;;14.70;11.90;;;;;;;17.04;85.15;97905.42;107205;1276;25404;-82
2022/06/08 03:31:55;;;;;;;14.30;11.70;;;;;;;17.05;85.12;97904.19;107142;1276;138219;-83
2022/06/08 03:34:23;;;;;;;14.40;11.30;;;;;;;17.06;85.15;97904.17;106597;1277;22586;-82
2022/06/08 03:36:51;;;;;;;18.60;11.60;;;;;;;17.10;84.92;97902.14;106985;1275;24257;-82
2022/06/08 03:39:19;;;;;;;15.10;11.10;;;;;;;17.15;84.75;97901.06;107029;1275;138419;-82
2022/06/08 03:42:01;;;;;;;14.30;11.10;;;;;;;17.17;84.48;97905.92;107139;1277;22717;-83
2022/06/08 03:44:28;;;;;;;13.00;11.30;;;;;;;17.22;84.78;97913.16;106324;1276;138170;-82
2022/06/08 03:47:01;;;;;;;11.80;9.90;;;;;;;17.28;84.86;97912.39;106638;1277;24259;-83
2022/06/08 03:49:42;;;;;;;11.80;9.50;;;;;;;17.34;84.46;97909.37;106682;1277;138214;-83
2022/06/08 03:52:27;;;;;;;12.40;9.30;;;;;;;17.40;84.13;97905.69;106949;1277;25337;-83
2022/06/08 03:54:59;;;;;;;12.80;9.80;;;;;;;17.40;83.90;97908.98;106526;1277;25538;-83
2022/06/08 03:57:30;;;;;;;13.50;10.80;;;;;;;17.40;83.77;97909.02;106376;1277;138398;-82
2022/06/08 04:00:00;;;;;;;15.80;11.90;;;;;;;17.41;83.69;97913.76;106417;1277;23176;-83
2022/06/08 04:02:45;;;;;;;17.10;13.10;;;;;;;17.36;83.35;97915.77;106462;1276;137470;-82
2022/06/08 04:05:14;;;;;;;16.50;11.70;;;;;;;17.33;83.52;97919.58;107386;1276;22580;-83
2022/06/08 04:07:42;;;;;;;14.40;11.40;;;;;;;17.34;83.90;97919.17;106974;1276;138238;-83
2022/06/08 04:10:10;;;;;;;17.30;10.90;;;;;;;17.37;83.92;97917.58;106526;1276;22590;-82
2022/06/08 04:12:51;;;;;;;13.20;10.40;;;;;;;17.43;83.70;97912.79;107035;1277;25358;-83
2022/06/08 04:18:04;;;;;;;17.50;11.10;;;;;;;17.51;83.51;97909.34;106702;1277;22737;-83
2022/06/08 04:20:33;;;;;;;15.60;11.80;;;;;;;17.54;83.44;97911.96;106664;1277;137653;-83
2022/06/08 04:23:02;;;;;;;12.30;10.90;;;;;;;17.60;83.52;97920.17;106803;1277;22562;-83
2022/06/08 04:25:44;;;;;;;12.90;10.60;;;;;;;17.62;83.07;97917.60;106203;1277;138408;-83
2022/06/08 04:28:17;;;;;;;15.30;10.30;;;;;;;17.63;82.77;97920.88;106872;1277;22547;-82
2022/06/08 04:30:45;;;;;;;13.60;11.10;;;;;;;17.57;82.77;97926.06;106892;1275;22686;-83
2022/06/08 04:33:26;;;;;;;14.90;11.10;;;;;;;17.57;82.67;97930.15;106358;1277;138100;-83
2022/06/08 04:36:11;;;;;;;13.60;10.70;;;;;;;17.57;82.80;97927.67;106936;1277;24032;-83
2022/06/08 04:38:52;;;;;;;21.70;12.80;;;;;;;17.53;82.84;97923.23;106203;1277;138180;-83
2022/06/08 04:41:35;;;;;;;15.60;11.60;;;;;;;17.53;83.02;97922.58;106562;1276;25324;-83
2022/06/08 04:44:02;;;;;;;;;;;;;;;17.55;83.19;97917.09;106935;1276;138424;-83
2022/06/08 04:46:30;;;;;;;11.70;9.90;;;;;;;17.49;82.68;97912.23;106566;1274;24433;-82
2022/06/08 04:48:58;;;;;;;13.30;10.10;;;;;;;17.45;83.20;97909.33;106730;1276;22677;-83
2022/06/08 04:51:27;;;;;;;;;;;;;;;17.47;82.99;97907.05;106437;1276;138204;-82
2022/06/08 04:53:55;;;;;;;15.70;10.50;;;;;;;17.45;83.12;97906.08;106413;1276;23299;-83
2022/06/08 04:56:23;;;;;;;13.50;10.80;;;;;;;17.45;83.18;97908.12;105995;1277;137650;-82
2022/06/08 04:58:54;;;;;;;13.00;10.00;;;;;;;17.48;83.44;97911.98;106420;1277;22753;-83
2022/06/08 05:01:23;;;;;;;19.30;10.00;;;;;;;17.53;83.39;97910.39;106659;1277;22641;-83
2022/06/08 05:03:50;;;;;;;11.90;9.50;;;;;;;17.54;82.98;97914.02;106084;1277;138849;-83
2022/06/08 05:06:17;;;;;;;13.90;10.60;;;;;;;17.50;82.83;97907.59;106586;1277;24921;-83
2022/06/08 05:08:45;;;;;;;19.00;12.90;;;;;;;17.48;82.97;97909.13;106441;1277;137706;-82
2022/06/08 05:11:26;;;;;;;16.90;12.30;;;;;;;17.47;83.21;97907.92;106626;1277;25111;-83
2022/06/08 05:13:54;;;;;;;16.30;11.60;;;;;;;17.47;83.10;97913.04;106309;1277;138119;-83
2022/06/08 05:16:21;;;;;;;13.80;10.80;;;;;;;17.45;82.96;97911.91;106822;1277;25569;-83
2022/06/08 05:18:51;;;;;;;15.40;11.20;;;;;;;17.45;83.03;97909.67;106710;1277;22602;-83
2022/06/08 05:21:21;;;;;;;17.90;10.90;;;;;;;17.45;83.14;97906.31;106817;1277;138520;-83
2022/06/08 05:24:03;;;;;;;15.30;11.20;;;;;;;17.49;83.40;97903.64;106622;1276;27480;-83
2022/06/08 05:26:47;;;;;;;16.30;11.50;;;;;;;17.58;83.67;97907.71;106604;1276;137411;-83
2022/06/08 05:29:15;;;;;;;15.90;12.10;;;;;;;17.67;83.36;97914.65;107208;1276;25062;-84
2022/06/08 05:31:42;;;;;;;15.50;11.50;;;;;;;17.72;83.36;97922.91;106537;1276;138820;-83
2022/06/08 05:34:10;;;;;;;16.80;11.00;;;;;;;17.82;83.31;97924.39;106776;1275;23314;-83
2022/06/08 05:36:38;;;;;;;14.70;11.20;;;;;;;17.87;82.57;97927.54;107059;1277;22592;-82
2022/06/08 05:39:08;;;;;;;14.90;11.90;;;;;;;17.81;82.18;97923.09;106521;1277;137859;-83
2022/06/08 05:41:40;;;;;;;17.20;12.70;;;;;;;17.75;82.57;97924.80;106860;1275;22553;-83
2022/06/08 05:44:08;;;;;;;18.80;13.10;;;;;;;17.71;82.68;97930.05;106530;1277;137928;-82
2022/06/08 05:46:51;;;;;;;17.90;12.60;;;;;;;17.67;82.90;97932.56;106696;1277;23295;-83
2022/06/08 05:49:18;;;;;;;18.50;13.20;;;;;;;17.58;82.87;97935.70;107035;1277;22546;-82
2022/06/08 05:52:03;;;;;;;19.80;14.20;;;;;;;17.51;83.36;97932.56;106604;1277;138613;-81
2022/06/08 05:54:46;;;;;;;17.20;12.80;;;;;;;17.49;83.54;97929.41;106474;1276;23116;-82
2022/06/08 05:57:14;;;;;;;21.80;15.50;;;;;;;17.47;83.91;97926.91;107621;1276;138867;-82
2022/06/08 05:59:56;;;;;;;19.20;13.50;;;;;;;17.45;84.16;97928.39;107143;1276;23289;-83
2022/06/08 06:02:24;;;;;;;24.20;13.80;;;;;;;17.43;84.38;97925.13;106676;1277;139153;-83
2022/06/08 06:04:52;;;;;;;23.20;14.10;;;;;;;17.46;84.52;97918.14;106803;1277;24265;-83
2022/06/08 06:07:20;;;;;;;18.80;13.80;;;;;;;17.54;84.61;97913.03;106640;1277;22591;-83
2022/06/08 06:10:02;;;;;;;21.00;14.60;;;;;;;17.59;84.21;97916.46;106669;1277;138453;-82
2022/06/08 06:12:45;;;;;;;21.70;14.30;;;;;;;17.62;84.21;97925.24;107391;1275;22722;-83
2022/06/08 06:15:14;;;;;;;20.30;14.00;;;;;;;17.63;83.97;97935.43;106531;1277;137745;-83
2022/06/08 06:17:45;;;;;;;24.10;15.00;;;;;;;17.56;83.77;97941.17;106564;1277;22593;-83
2022/06/08 06:20:13;;;;;;;24.40;14.70;;;;;;;17.46;83.90;97946.42;106881;1277;22531;-82
2022/06/08 06:23:01;;;;;;;23.60;14.70;;;;;;;17.39;84.31;97950.34;107046;1277;22854;-82
2022/06/08 06:25:51;;;;;;;22.20;13.90;;;;;;;17.39;84.54;97945.40;106757;1277;139731;-83
2022/06/08 06:28:37;;;;;;;22.30;14.70;;;;;;;17.38;84.70;97944.42;106737;1277;23465;-83
2022/06/08 06:31:37;;;;;;;19.00;12.70;;;;;;;17.41;84.80;97947.77;106852;1275;22549;-83
2022/06/08 06:34:13;;;;;;;20.80;13.80;;;;;;;17.40;84.45;97949.12;107182;1277;22739;-83
2022/06/08 06:36:41;;;;;;;21.20;13.70;;;;;;;17.35;84.80;97950.86;107432;1277;30635;-83
2022/06/08 06:39:09;;;;;;;22.50;14.30;;;;;;;17.34;84.87;97952.27;107006;1277;138284;-82
2022/06/08 06:41:39;;;;;;;17.30;12.80;;;;;;;17.30;84.84;97952.98;107114;1277;22648;-83
2022/06/08 06:44:23;;;;;;;20.00;14.20;;;;;;;17.27;84.76;97952.91;106504;1277;138824;-83
2022/06/08 06:47:23;;;;;;;19.00;13.60;;;;;;;17.23;84.93;97953.37;107083;1277;30677;-83
2022/06/08 06:49:58;;;;;;;16.50;12.90;;;;;;;17.20;85.03;97954.80;106595;1277;139347;-83
2022/06/08 06:52:39;;;;;;;19.10;14.00;;;;;;;17.19;85.39;97956.52;106668;1277;22639;-83
2022/06/08 06:55:30;;;;;;;23.50;15.00;;;;;;;17.22;85.25;97960.10;106657;1277;22593;-83
2022/06/08 06:58:02;;;;;;;16.30;13.20;;;;;;;17.25;85.23;97957.25;106878;1276;138149;-83
2022/06/08 07:00:35;;;;;;;17.10;13.60;;;;;;;17.33;85.43;97965.14;106882;1277;22796;-83
2022/06/08 07:03:20;;;;;;;16.90;13.10;;;;;;;17.42;85.26;97971.88;106791;1277;137602;-84
2022/06/08 07:05:49;;;;;;;16.60;12.40;;;;;;;17.48;84.92;97976.17;106806;1277;24446;-83
2022/06/08 07:08:18;;;;;;;14.00;10.90;;;;;;;17.53;84.54;97983.04;106479;1277;138454;-83
2022/06/08 07:11:32;;;;;;;14.30;11.60;;;;;;;17.55;84.15;97982.61;107201;1277;23357;-83
2022/06/08 07:13:38;;;;;;;14.00;11.90;;;;;;;17.54;83.71;97976.45;106897;1277;25939;-83
2022/06/08 07:16:06;;;;;;;13.40;11.50;;;;;;;17.48;83.57;97974.69;107057;1277;138313;-83
2022/06/08 07:18:34;;;;;;;15.90;10.80;;;;;;;17.39;83.74;97970.32;107025;1277;22554;-83
2022/06/08 07:21:15;;;;;;;10.10;8.80;;;;;;;17.33;83.95;97973.20;106907;1277;138143;-83
2022/06/08 07:23:43;;;;;;;11.20;9.30;;;;;;;17.26;84.21;97973.08;106756;1277;25413;-83
2022/06/08 07:26:11;;;;;;;10.80;9.70;;;;;;;17.25;84.75;97970.12;106436;1276;138094;-82
2022/06/08 07:28:39;;;;;;;12.10;10.50;;;;;;;17.28;84.88;97966.64;107028;1276;22557;-85
2022/06/08 07:31:21;;;;;;;10.90;9.80;;;;;;;17.28;84.65;97961.93;106538;1276;23328;-83
2022/06/08 07:33:49;;;;;;;12.50;9.50;;;;;;;17.21;84.64;97956.77;106303;1276;137796;-83
2022/06/08 07:36:18;;;;;;;12.10;10.90;;;;;;;17.18;85.27;97941.30;106948;1276;23279;-82
2022/06/08 07:38:46;;;;;;;11.60;10.40;;;;;;;17.23;85.79;97922.72;106470;1277;138927;-80
2022/06/08 07:41:27;;;;;;;12.50;10.00;;;;;;;17.31;85.92;97918.29;106597;1278;23307;-80
2022/06/08 07:43:54;;;;;;;9.30;8.10;;;;;;;17.39;85.90;97914.51;106966;1280;138445;-80
2022/06/08 07:46:22;;;;;;;9.60;8.00;;;;;;;17.50;85.63;97912.98;106674;1276;22544;-80
2022/06/08 07:52:12;;;;;;;9.00;7.80;;;;;;;17.70;85.36;97906.05;106616;1277;137764;-80
2022/06/08 07:54:40;;;;;;;11.90;7.90;;;;;;;17.86;85.30;97905.54;107073;1277;22624;-81
2022/06/08 07:57:29;;;;;;;10.70;8.80;;;;;;;17.98;84.28;97906.40;107303;1277;138180;-82
2022/06/08 08:00:12;;;;;;;11.10;9.20;;;;;;;18.06;84.35;97916.20;106731;1280;22602;-82
2022/06/08 08:02:54;;;;;;;11.00;9.30;;;;;;;18.15;84.21;97922.20;106578;1278;137469;-81
2022/06/08 08:05:24;;;;;;;10.10;8.60;;;;;;;18.26;84.38;97923.35;107078;1277;24332;-81
2022/06/08 08:07:54;;;;;;;10.40;8.50;;;;;;;18.37;83.95;97921.00;107198;1277;138112;-82
2022/06/08 08:10:25;;;;;;;11.50;9.90;;;;;;;18.45;83.12;97916.92;106397;1277;22549;-82
2022/06/08 08:12:55;;;;;;;12.30;9.50;;;;;;;18.51;82.81;97912.98;106849;1277;22540;-83
2022/06/08 08:15:29;;;;;;;11.40;10.00;;;;;;;18.56;82.23;97921.21;106897;1276;137434;-83
2022/06/08 08:17:56;;;;;;;13.70;9.90;;;;;;;18.58;82.35;97925.56;107247;1276;24234;-83
2022/06/08 08:20:28;;;;;;;11.90;8.80;;;;;;;18.64;82.24;97926.70;106932;1277;138811;-83
2022/06/08 08:23:09;;;;;;;13.80;9.20;;;;;;;18.70;81.65;97932.36;106539;1278;22772;-83
2022/06/08 08:25:36;;;;;;;14.30;9.80;;;;;;;18.74;81.53;97939.60;106376;1277;23179;-85
2022/06/08 08:28:04;;;;;;;12.40;9.30;;;;;;;18.79;81.47;97946.48;107026;1277;137124;-84
2022/06/08 08:30:32;;;;;;;10.60;9.50;;;;;;;18.79;80.80;97954.16;106715;1277;22557;-90
2022/06/08 08:32:59;;;;;;;10.00;8.90;;;;;;;18.69;80.13;97956.52;106884;1277;138009;-86
2022/06/08 08:35:28;;;;;;;10.90;8.90;;;;;;;18.64;80.60;97959.14;106383;1277;23389;-86
2022/06/08 08:37:56;;;;;;;11.80;9.90;;;;;;;18.68;81.17;97967.59;107075;1276;138124;-80
2022/06/08 08:40:51;;;;;;;12.00;9.30;;;;;;;18.71;80.95;97974.88;106562;1277;22554;-82
2022/06/08 08:43:22;;;;;;;11.00;9.30;;;;;;;18.70;80.40;97978.36;106520;1277;22533;-84
2022/06/08 08:46:28;;;;;;;12.40;9.80;;;;;;;18.64;79.97;97983.62;106208;1277;137644;-86
2022/06/08 08:49:21;;;;;;;11.80;9.60;;;;;;;18.57;80.23;97990.07;106702;1277;22541;-86
2022/06/08 08:51:59;;;;;;;11.10;8.90;;;;;;;18.55;80.15;98004.05;106725;1277;138090;-86
2022/06/08 08:54:51;;;;;;;11.60;8.80;;;;;;;18.47;79.91;98005.84;106210;1277;644134;-86
2022/06/08 08:57:41;;;;;;;12.00;10.00;;;;;;;18.39;79.67;98011.67;106567;1277;137462;-77
2022/06/08 09:00:37;;;;;;;13.70;9.60;;;;;;;18.29;80.19;98013.25;106745;1277;30245;-77
2022/06/08 09:03:21;;;;;;;13.20;9.50;;;;;;;18.25;80.60;98011.91;106307;1277;137955;-77
2022/06/08 09:05:52;;;;;;;13.10;9.10;;;;;;;18.25;80.99;98011.48;106758;1277;24298;-78
2022/06/08 09:08:22;;;;;;;10.50;9.00;;;;;;;18.27;81.51;98015.23;107151;1275;138316;-78
2022/06/08 09:11:15;;;;;;;14.60;9.00;;;;;;;18.31;82.07;98015.02;106910;1277;23073;-78
2022/06/08 09:13:57;;;;;;;14.40;9.20;;;;;;;18.38;82.15;98013.03;106845;1276;23944;-77
2022/06/08 09:16:42;;;;;;;11.00;8.60;;;;;;;18.41;82.01;98010.52;106523;1276;22554;-77
2022/06/08 09:19:21;;;;;;;10.40;8.70;;;;;;;18.37;81.73;98008.25;106858;1277;25331;-77
2022/06/08 09:21:50;;;;;;;9.80;8.40;;;;;;;18.28;81.75;98013.01;106253;1277;137651;-77
2022/06/08 09:24:41;;;;;;;13.20;8.60;;;;;;;18.16;82.26;98013.06;105989;1277;22531;-78
2022/06/08 09:27:29;;;;;;;10.40;7.40;;;;;;;18.09;82.92;98008.77;106660;1277;137981;-78
2022/06/08 09:30:09;;;;;;;9.60;8.20;;;;;;;18.05;83.15;98010.10;106138;1277;22642;-78
2022/06/08 09:32:59;;;;;;;9.90;7.70;;;;;;;18.06;83.61;98004.05;106317;1277;138308;-78
2022/06/08 09:35:32;;;;;;;8.00;7.10;;;;;;;18.10;83.81;97987.96;105931;1277;22557;-78
2022/06/08 09:38:04;;;;;;;10.40;7.30;;;;;;;18.10;83.67;97979.14;106001;1277;138431;-77
2022/06/08 09:40:56;;;;;;;9.40;7.30;;;;;;;18.01;83.46;97969.54;106939;1277;25691;-78
2022/06/08 09:43:29;;;;;;;10.30;8.40;;;;;;;17.91;84.08;97971.23;106550;1277;22727;-78
2022/06/08 09:46:09;;;;;;;12.60;8.50;;;;;;;17.91;85.01;97962.25;106298;1276;137508;-78
2022/06/08 09:52:22;;;;;;;9.50;8.50;;;;;;;18.19;85.53;97947.20;106723;1275;138195;-78
2022/06/08 09:55:05;;;;;;;11.50;10.00;;;;;;;18.32;85.23;97948.58;106179;1276;25589;-78
2022/06/08 09:57:43;;;;;;;14.00;11.50;;;;;;;18.48;85.23;97944.27;106853;1275;138348;-78
2022/06/08 10:00:34;;;;;;;13.80;11.60;;;;;;;18.69;84.96;97935.14;107176;1276;27674;-77
2022/06/08 10:03:28;;;;;;;13.50;11.40;;;;;;;18.85;85.05;97920.56;106233;1277;137972;-77
2022/06/08 10:06:35;;;;;;;11.80;10.60;;;;;;;19.01;84.54;97912.38;106240;1277;23867;-78
2022/06/08 10:09:30;;;;;;;11.90;9.40;;;;;;;19.21;84.57;97905.54;106527;1276;138141;-80
2022/06/08 10:12:24;;;;;;;11.90;10.60;;;;;;;19.38;83.40;97903.79;106391;1277;23092;-78
2022/06/08 10:15:26;;;;;;;15.90;11.40;;;;;;;19.52;82.89;97903.52;106152;1277;138869;-79
2022/06/08 10:18:19;;;;;;;11.10;9.60;;;;;;;19.62;82.35;97906.39;106673;1278;25308;-81
2022/06/08 10:20:54;;;;;;;10.40;9.30;;;;;;;19.64;82.00;97902.18;106105;1277;137443;-82
2022/06/08 10:24:12;;;;;;;8.30;7.40;;;;;;;19.71;82.23;97904.36;106492;1277;22706;-82
2022/06/08 10:26:44;;;;;;;7.80;7.00;;;;;;;19.86;82.08;97903.86;106449;1277;137799;-83
2022/06/08 10:29:14;;;;;;;9.50;7.10;;;;;;;19.99;81.62;97907.33;106718;1277;22599;-84
2022/06/08 10:32:17;;;;;;;9.20;8.00;;;;;;;20.18;81.32;97913.65;107177;1277;138424;-85
2022/06/08 10:34:52;;;;;;;8.90;8.00;;;;;;;20.25;79.75;97911.33;106805;1277;25404;-84
2022/06/08 10:37:41;;;;;;;8.20;7.30;;;;;;;20.29;80.63;97905.57;106637;1277;22703;-84
2022/06/08 10:40:26;;;;;;;9.70;8.20;;;;;;;20.40;80.83;97907.50;106586;1277;138246;-84
2022/06/08 10:42:56;;;;;;;9.40;7.90;;;;;;;20.53;80.32;97898.15;107053;1277;30358;-84
2022/06/08 10:45:37;;;;;;;8.60;6.70;;;;;;;20.61;79.33;97892.84;106596;1276;137935;-84
2022/06/08 10:48:15;;;;;;;8.70;7.70;;;;;;;20.66;79.39;97889.59;107188;1275;25332;-84
2022/06/08 10:50:48;;;;;;;8.00;7.30;;;;;;;20.75;79.52;97886.08;106655;1277;137301;-84
2022/06/08 10:56:26;;;;;;;6.50;5.90;;;;;;;20.99;78.02;97885.80;106753;1277;138409;-82
2022/06/08 10:59:07;;;;;;;6.70;5.20;;;;;;;21.06;77.45;97888.30;107027;1276;25360;-84
2022/06/08 11:02:03;;;;;;;6.40;5.70;;;;;;;21.02;75.28;97887.58;106764;1277;25289;-84
2022/06/08 11:04:33;;;;;;;6.30;5.70;;;;;;;20.93;76.02;97894.02;106658;1277;22584;-84
2022/06/08 11:07:16;;;;;;;5.80;5.30;;;;;;;20.95;77.50;97888.15;106692;1277;25518;-84
2022/06/08 11:09:57;;;;;;;6.00;4.80;;;;;;;20.97;76.39;97882.67;106392;1277;137983;-84
2022/06/08 11:12:53;;;;;;;5.30;4.80;;;;;;;20.91;76.25;97885.51;106925;1277;25352;-84
2022/06/08 11:15:54;;;;;;;5.50;4.60;;;;;;;20.88;75.88;97886.88;106419;1277;137279;-84
2022/06/08 11:18:47;;;;;;;8.20;6.30;;;;;;;20.83;75.17;97888.31;106499;1277;25366;-84
2022/06/08 11:21:39;;;;;;;6.70;6.10;;;;;;;20.71;74.76;97890.15;106682;1277;137228;-83
2022/06/08 11:24:19;;;;;;;6.10;5.50;;;;;;;20.61;75.62;97891.33;107334;1277;30838;-83
2022/06/08 11:27:22;;;;;;;7.20;5.50;;;;;;;20.60;76.29;97891.56;107021;1277;139193;-84
2022/06/08 11:29:56;;;;;;;4.80;4.30;;;;;;;20.64;76.10;97887.54;106897;1277;25427;-84
2022/06/08 11:32:52;;;;;;;5.00;4.50;;;;;;;20.67;75.58;97881.06;106802;1277;138978;-84
2022/06/08 11:35:47;;;;;;;5.50;5.00;;;;;;;20.73;75.96;97885.73;106667;1277;24416;-83
2022/06/08 11:38:31;;;;;;;5.10;4.70;;;;;;;20.75;75.86;97883.66;106316;1277;138247;-83
2022/06/08 11:41:33;;;;;;;6.50;4.80;;;;;;;20.74;75.88;97878.82;106763;1277;25362;-84
2022/06/08 11:44:11;;;;;;;6.00;5.00;;;;;;;20.67;75.28;97884.77;106425;1276;139708;-83
2022/06/08 11:46:42;;;;;;;6.70;5.30;;;;;;;20.64;76.26;97883.83;106840;1276;24360;-83
2022/06/08 11:49:37;;;;;;;5.80;4.80;;;;;;;20.58;76.02;97882.20;106596;1276;22620;-83
2022/06/08 11:52:24;;;;;;;7.00;5.60;;;;;;;20.57;76.65;97881.48;106631;1276;137545;-83
2022/06/08 11:55:10;;;;;;;6.90;6.10;;;;;;;20.56;76.69;97881.75;106268;1277;30601;-83
2022/06/08 11:57:47;;;;;;;6.00;5.40;;;;;;;20.52;76.78;97884.84;106921;1277;137856;-83
2022/06/08 12:00:48;;;;;;;5.90;4.90;;;;;;;20.51;76.85;97885.01;106652;1277;22552;-85
2022/06/08 12:03:16;;;;;;;5.60;5.00;;;;;;;20.50;76.66;97888.55;106403;1277;138292;-84
2022/06/08 12:05:51;;;;;;;5.80;5.20;;;;;;;20.47;76.20;97885.94;106437;1277;22579;-86
2022/06/08 12:08:48;;;;;;;7.30;5.20;;;;;;;20.41;76.24;97887.79;106670;1277;138070;-85
2022/06/08 12:11:20;;;;;;;6.80;6.10;;;;;;;20.37;76.24;97884.86;106821;1277;24230;-85
2022/06/08 12:13:58;;;;;;;7.80;6.40;;;;;;;20.35;76.65;97887.04;106531;1277;138006;-84
2022/06/08 12:16:33;;;;;;;10.90;6.10;;;;;;;20.35;76.87;97885.08;106849;1277;23253;-84
2022/06/08 12:19:18;;;;;;;6.30;5.60;;;;;;;20.33;76.67;97886.18;106559;1277;22667;-84
2022/06/08 12:21:49;;;;;;;8.20;5.80;;;;;;;20.30;76.89;97886.34;106833;1277;137651;-84
2022/06/08 12:24:19;;;;;;;7.30;5.20;;;;;;;20.24;76.25;97887.89;106665;1277;22570;-84